sensor_id;sensor_type;location;lat;lon;timestamp;P1;durP1;ratioP1;P2;durP2;ratioP2
37787;SDS011;23627;53.302;-6.362;2023-07-28T00:02:04;1.17;;;0.70;;
37787;SDS011;23627;53.302;-6.362;2023-07-28T00:04:30;1.42;;;0.95;;
37787;SDS011;23627;53.302;-6.362;2023-07-28T00:06:56;0.98;;;0.60;;
37787;SDS011;23627;53.302;-6.362;2023-07-28T00:09:22;0.80;;;0.60;;
37787;SDS011;23627;53.302;-6.362;2023-07-28T00:11:48;0.80;;;0.68;;
37787;SDS011;23627;53.302;-6.362;2023-07-28T00:14:14;0.80;;;0.60;;
37787;SDS011;23627;53.302;-6.362;2023-07-28T00:16:40;1.00;;;0.60;;
37787;SDS011;23627;53.302;-6.362;2023-07-28T00:19:06;1.05;;;0.60;;
37787;SDS011;23627;53.302;-6.362;2023-07-28T00:21:31;1.67;;;0.85;;
37787;SDS011;23627;53.302;-6.362;2023-07-28T00:23:57;1.40;;;0.60;;
37787;SDS011;23627;53.302;-6.362;2023-07-28T00:26:23;1.70;;;0.60;;
37787;SDS011;23627;53.302;-6.362;2023-07-28T00:28:49;0.90;;;0.70;;
37787;SDS011;23627;53.302;-6.362;2023-07-28T00:31:14;0.85;;;0.60;;
37787;SDS011;23627;53.302;-6.362;2023-07-28T00:33:40;1.10;;;0.80;;
37787;SDS011;23627;53.302;-6.362;2023-07-28T00:36:07;1.13;;;0.60;;
37787;SDS011;23627;53.302;-6.362;2023-07-28T00:38:32;1.05;;;0.68;;
37787;SDS011;23627;53.302;-6.362;2023-07-28T00:40:58;1.50;;;0.70;;
37787;SDS011;23627;53.302;-6.362;2023-07-28T00:43:24;1.48;;;0.80;;
37787;SDS011;23627;53.302;-6.362;2023-07-28T00:45:50;2.05;;;0.90;;
37787;SDS011;23627;53.302;-6.362;2023-07-28T00:48:16;2.22;;;0.85;;
37787;SDS011;23627;53.302;-6.362;2023-07-28T00:50:46;2.10;;;0.75;;
37787;SDS011;23627;53.302;-6.362;2023-07-28T00:53:13;1.00;;;0.70;;
37787;SDS011;23627;53.302;-6.362;2023-07-28T00:55:39;2.08;;;0.90;;
37787;SDS011;23627;53.302;-6.362;2023-07-28T00:58:06;2.30;;;0.70;;
37787;SDS011;23627;53.302;-6.362;2023-07-28T01:00:33;1.00;;;0.68;;
37787;SDS011;23627;53.302;-6.362;2023-07-28T01:02:58;1.70;;;0.80;;
37787;SDS011;23627;53.302;-6.362;2023-07-28T01:05:26;1.55;;;0.70;;
37787;SDS011;23627;53.302;-6.362;2023-07-28T01:08:19;1.58;;;0.70;;
37787;SDS011;23627;53.302;-6.362;2023-07-28T01:11:07;2.25;;;1.13;;
37787;SDS011;23627;53.302;-6.362;2023-07-28T01:13:34;1.77;;;0.80;;
37787;SDS011;23627;53.302;-6.362;2023-07-28T01:16:00;1.85;;;0.80;;
37787;SDS011;23627;53.302;-6.362;2023-07-28T01:18:26;2.80;;;0.85;;
37787;SDS011;23627;53.302;-6.362;2023-07-28T01:20:52;1.33;;;0.90;;
37787;SDS011;23627;53.302;-6.362;2023-07-28T01:26:05;0.90;;;0.60;;
37787;SDS011;23627;53.302;-6.362;2023-07-28T01:28:33;1.73;;;0.80;;
37787;SDS011;23627;53.302;-6.362;2023-07-28T01:31:03;1.65;;;0.90;;
37787;SDS011;23627;53.302;-6.362;2023-07-28T01:33:30;0.85;;;0.70;;
37787;SDS011;23627;53.302;-6.362;2023-07-28T01:35:56;1.65;;;0.70;;
37787;SDS011;23627;53.302;-6.362;2023-07-28T01:38:23;1.88;;;1.10;;
37787;SDS011;23627;53.302;-6.362;2023-07-28T01:40:49;1.50;;;0.85;;
37787;SDS011;23627;53.302;-6.362;2023-07-28T01:43:15;1.90;;;1.00;;
37787;SDS011;23627;53.302;-6.362;2023-07-28T01:45:40;1.45;;;0.73;;
37787;SDS011;23627;53.302;-6.362;2023-07-28T01:48:06;1.58;;;0.98;;
37787;SDS011;23627;53.302;-6.362;2023-07-28T01:50:34;1.98;;;0.90;;
37787;SDS011;23627;53.302;-6.362;2023-07-28T01:53:00;1.58;;;0.82;;
37787;SDS011;23627;53.302;-6.362;2023-07-28T01:55:26;1.30;;;0.70;;
37787;SDS011;23627;53.302;-6.362;2023-07-28T01:57:56;2.00;;;1.00;;
37787;SDS011;23627;53.302;-6.362;2023-07-28T02:00:23;2.35;;;0.90;;
37787;SDS011;23627;53.302;-6.362;2023-07-28T02:02:49;1.27;;;0.80;;
37787;SDS011;23627;53.302;-6.362;2023-07-28T02:05:15;1.42;;;0.80;;
37787;SDS011;23627;53.302;-6.362;2023-07-28T02:07:41;3.00;;;0.88;;
37787;SDS011;23627;53.302;-6.362;2023-07-28T02:10:08;3.00;;;0.93;;
37787;SDS011;23627;53.302;-6.362;2023-07-28T02:12:35;1.73;;;1.00;;
37787;SDS011;23627;53.302;-6.362;2023-07-28T02:15:01;1.55;;;0.73;;
37787;SDS011;23627;53.302;-6.362;2023-07-28T02:17:27;1.92;;;0.88;;
37787;SDS011;23627;53.302;-6.362;2023-07-28T02:19:53;2.15;;;1.00;;
37787;SDS011;23627;53.302;-6.362;2023-07-28T02:22:18;1.83;;;1.00;;
37787;SDS011;23627;53.302;-6.362;2023-07-28T02:24:44;2.70;;;0.80;;
37787;SDS011;23627;53.302;-6.362;2023-07-28T02:27:10;1.63;;;1.00;;
37787;SDS011;23627;53.302;-6.362;2023-07-28T02:29:35;2.03;;;0.90;;
37787;SDS011;23627;53.302;-6.362;2023-07-28T02:32:01;1.73;;;0.85;;
37787;SDS011;23627;53.302;-6.362;2023-07-28T02:34:27;1.55;;;1.00;;
37787;SDS011;23627;53.302;-6.362;2023-07-28T02:36:53;2.58;;;1.13;;
37787;SDS011;23627;53.302;-6.362;2023-07-28T02:39:19;2.33;;;0.90;;
37787;SDS011;23627;53.302;-6.362;2023-07-28T02:41:45;2.65;;;1.00;;
37787;SDS011;23627;53.302;-6.362;2023-07-28T02:44:11;2.28;;;0.95;;
37787;SDS011;23627;53.302;-6.362;2023-07-28T02:46:37;2.90;;;0.90;;
37787;SDS011;23627;53.302;-6.362;2023-07-28T02:49:02;2.47;;;1.08;;
37787;SDS011;23627;53.302;-6.362;2023-07-28T02:51:29;2.28;;;1.02;;
37787;SDS011;23627;53.302;-6.362;2023-07-28T02:53:55;2.38;;;0.90;;
37787;SDS011;23627;53.302;-6.362;2023-07-28T02:56:21;2.58;;;0.90;;
37787;SDS011;23627;53.302;-6.362;2023-07-28T02:58:47;2.75;;;0.90;;
37787;SDS011;23627;53.302;-6.362;2023-07-28T03:01:13;1.80;;;0.93;;
37787;SDS011;23627;53.302;-6.362;2023-07-28T03:03:39;2.67;;;1.65;;
37787;SDS011;23627;53.302;-6.362;2023-07-28T03:06:05;5.18;;;2.35;;
37787;SDS011;23627;53.302;-6.362;2023-07-28T03:08:30;2.05;;;1.52;;
37787;SDS011;23627;53.302;-6.362;2023-07-28T03:10:57;3.15;;;1.92;;
37787;SDS011;23627;53.302;-6.362;2023-07-28T03:13:23;3.53;;;2.28;;
37787;SDS011;23627;53.302;-6.362;2023-07-28T03:15:49;3.95;;;2.47;;
37787;SDS011;23627;53.302;-6.362;2023-07-28T03:18:15;4.00;;;2.28;;
37787;SDS011;23627;53.302;-6.362;2023-07-28T03:20:41;3.42;;;2.25;;
37787;SDS011;23627;53.302;-6.362;2023-07-28T03:23:06;4.18;;;2.10;;
37787;SDS011;23627;53.302;-6.362;2023-07-28T03:25:32;4.78;;;2.70;;
37787;SDS011;23627;53.302;-6.362;2023-07-28T03:27:58;6.95;;;3.38;;
37787;SDS011;23627;53.302;-6.362;2023-07-28T03:30:23;4.88;;;3.38;;
37787;SDS011;23627;53.302;-6.362;2023-07-28T03:32:49;6.05;;;3.60;;
37787;SDS011;23627;53.302;-6.362;2023-07-28T03:35:15;4.95;;;3.38;;
37787;SDS011;23627;53.302;-6.362;2023-07-28T03:37:41;5.45;;;3.78;;
37787;SDS011;23627;53.302;-6.362;2023-07-28T03:40:06;9.75;;;6.28;;
37787;SDS011;23627;53.302;-6.362;2023-07-28T03:42:33;7.47;;;4.97;;
37787;SDS011;23627;53.302;-6.362;2023-07-28T03:44:59;8.65;;;5.57;;
37787;SDS011;23627;53.302;-6.362;2023-07-28T03:47:24;7.05;;;4.43;;
37787;SDS011;23627;53.302;-6.362;2023-07-28T03:49:50;11.20;;;6.28;;
37787;SDS011;23627;53.302;-6.362;2023-07-28T03:52:16;8.85;;;6.22;;
37787;SDS011;23627;53.302;-6.362;2023-07-28T03:54:42;6.78;;;4.72;;
37787;SDS011;23627;53.302;-6.362;2023-07-28T03:57:08;4.93;;;3.53;;
37787;SDS011;23627;53.302;-6.362;2023-07-28T03:59:34;6.22;;;3.28;;
37787;SDS011;23627;53.302;-6.362;2023-07-28T04:02:00;7.95;;;3.60;;
37787;SDS011;23627;53.302;-6.362;2023-07-28T04:04:26;4.30;;;2.90;;
37787;SDS011;23627;53.302;-6.362;2023-07-28T04:06:53;3.58;;;2.50;;
37787;SDS011;23627;53.302;-6.362;2023-07-28T04:09:19;3.35;;;2.20;;
37787;SDS011;23627;53.302;-6.362;2023-07-28T04:11:45;4.53;;;2.63;;
37787;SDS011;23627;53.302;-6.362;2023-07-28T04:14:11;2.78;;;1.98;;
37787;SDS011;23627;53.302;-6.362;2023-07-28T04:16:37;3.25;;;1.85;;
37787;SDS011;23627;53.302;-6.362;2023-07-28T04:19:03;4.95;;;2.30;;
37787;SDS011;23627;53.302;-6.362;2023-07-28T04:21:29;2.70;;;1.92;;
37787;SDS011;23627;53.302;-6.362;2023-07-28T04:23:55;2.95;;;1.63;;
37787;SDS011;23627;53.302;-6.362;2023-07-28T04:26:20;3.88;;;1.83;;
37787;SDS011;23627;53.302;-6.362;2023-07-28T04:28:47;2.15;;;1.75;;
37787;SDS011;23627;53.302;-6.362;2023-07-28T04:31:12;3.20;;;1.27;;
37787;SDS011;23627;53.302;-6.362;2023-07-28T04:33:40;3.22;;;1.70;;
37787;SDS011;23627;53.302;-6.362;2023-07-28T04:36:06;3.83;;;1.80;;
37787;SDS011;23627;53.302;-6.362;2023-07-28T04:38:32;3.15;;;1.80;;
37787;SDS011;23627;53.302;-6.362;2023-07-28T04:40:58;3.35;;;1.80;;
37787;SDS011;23627;53.302;-6.362;2023-07-28T04:43:24;3.78;;;2.28;;
37787;SDS011;23627;53.302;-6.362;2023-07-28T04:45:50;2.85;;;1.88;;
37787;SDS011;23627;53.302;-6.362;2023-07-28T04:48:15;3.28;;;2.20;;
37787;SDS011;23627;53.302;-6.362;2023-07-28T04:50:41;4.28;;;2.80;;
37787;SDS011;23627;53.302;-6.362;2023-07-28T04:53:07;4.55;;;2.97;;
37787;SDS011;23627;53.302;-6.362;2023-07-28T04:55:33;6.10;;;3.63;;
37787;SDS011;23627;53.302;-6.362;2023-07-28T04:57:58;6.88;;;3.55;;
37787;SDS011;23627;53.302;-6.362;2023-07-28T05:00:24;5.45;;;3.58;;
37787;SDS011;23627;53.302;-6.362;2023-07-28T05:02:50;7.07;;;4.18;;
37787;SDS011;23627;53.302;-6.362;2023-07-28T05:05:16;6.72;;;3.88;;
37787;SDS011;23627;53.302;-6.362;2023-07-28T05:07:42;5.97;;;3.92;;
37787;SDS011;23627;53.302;-6.362;2023-07-28T05:10:07;4.60;;;3.10;;
37787;SDS011;23627;53.302;-6.362;2023-07-28T05:12:33;5.68;;;2.90;;
37787;SDS011;23627;53.302;-6.362;2023-07-28T05:14:59;3.45;;;2.30;;
37787;SDS011;23627;53.302;-6.362;2023-07-28T05:17:25;3.10;;;2.10;;
37787;SDS011;23627;53.302;-6.362;2023-07-28T05:19:51;4.28;;;2.00;;
37787;SDS011;23627;53.302;-6.362;2023-07-28T05:22:16;4.22;;;2.15;;
37787;SDS011;23627;53.302;-6.362;2023-07-28T05:24:43;3.38;;;1.90;;
37787;SDS011;23627;53.302;-6.362;2023-07-28T05:27:13;3.42;;;1.70;;
37787;SDS011;23627;53.302;-6.362;2023-07-28T05:29:39;3.40;;;1.77;;
37787;SDS011;23627;53.302;-6.362;2023-07-28T05:32:05;2.83;;;1.50;;
37787;SDS011;23627;53.302;-6.362;2023-07-28T05:34:31;6.20;;;1.85;;
37787;SDS011;23627;53.302;-6.362;2023-07-28T05:36:57;5.75;;;1.90;;
37787;SDS011;23627;53.302;-6.362;2023-07-28T05:39:23;3.60;;;1.85;;
37787;SDS011;23627;53.302;-6.362;2023-07-28T05:41:48;3.15;;;1.52;;
37787;SDS011;23627;53.302;-6.362;2023-07-28T05:44:14;5.15;;;1.90;;
37787;SDS011;23627;53.302;-6.362;2023-07-28T05:46:40;2.30;;;1.48;;
37787;SDS011;23627;53.302;-6.362;2023-07-28T05:49:06;4.05;;;1.50;;
37787;SDS011;23627;53.302;-6.362;2023-07-28T05:51:31;2.40;;;1.67;;
37787;SDS011;23627;53.302;-6.362;2023-07-28T05:53:57;2.75;;;1.38;;
37787;SDS011;23627;53.302;-6.362;2023-07-28T05:56:23;2.30;;;1.50;;
37787;SDS011;23627;53.302;-6.362;2023-07-28T05:58:49;3.45;;;1.55;;
37787;SDS011;23627;53.302;-6.362;2023-07-28T06:01:15;3.75;;;1.50;;
37787;SDS011;23627;53.302;-6.362;2023-07-28T06:03:41;4.90;;;1.40;;
37787;SDS011;23627;53.302;-6.362;2023-07-28T06:06:07;3.80;;;1.23;;
37787;SDS011;23627;53.302;-6.362;2023-07-28T06:08:33;3.55;;;1.65;;
37787;SDS011;23627;53.302;-6.362;2023-07-28T06:10:59;3.80;;;1.38;;
37787;SDS011;23627;53.302;-6.362;2023-07-28T06:13:25;2.72;;;1.10;;
37787;SDS011;23627;53.302;-6.362;2023-07-28T06:15:52;2.72;;;1.20;;
37787;SDS011;23627;53.302;-6.362;2023-07-28T06:18:19;4.20;;;1.20;;
37787;SDS011;23627;53.302;-6.362;2023-07-28T06:20:47;5.63;;;1.20;;
37787;SDS011;23627;53.302;-6.362;2023-07-28T06:23:13;4.40;;;1.55;;
37787;SDS011;23627;53.302;-6.362;2023-07-28T06:25:39;3.63;;;1.30;;
37787;SDS011;23627;53.302;-6.362;2023-07-28T06:38:30;2.25;;;1.20;;
37787;SDS011;23627;53.302;-6.362;2023-07-28T06:41:05;7.43;;;1.60;;
37787;SDS011;23627;53.302;-6.362;2023-07-28T06:46:30;1.95;;;0.77;;
37787;SDS011;23627;53.302;-6.362;2023-07-28T06:48:56;6.25;;;1.20;;
37787;SDS011;23627;53.302;-6.362;2023-07-28T06:51:23;4.78;;;0.95;;
37787;SDS011;23627;53.302;-6.362;2023-07-28T06:53:49;4.50;;;1.23;;
37787;SDS011;23627;53.302;-6.362;2023-07-28T06:56:15;4.40;;;1.10;;
37787;SDS011;23627;53.302;-6.362;2023-07-28T06:58:41;3.67;;;1.20;;
37787;SDS011;23627;53.302;-6.362;2023-07-28T07:01:07;3.55;;;1.20;;
37787;SDS011;23627;53.302;-6.362;2023-07-28T07:03:51;2.53;;;1.05;;
37787;SDS011;23627;53.302;-6.362;2023-07-28T07:06:17;4.80;;;1.25;;
37787;SDS011;23627;53.302;-6.362;2023-07-28T07:08:52;6.80;;;1.25;;
37787;SDS011;23627;53.302;-6.362;2023-07-28T07:11:18;4.43;;;1.00;;
37787;SDS011;23627;53.302;-6.362;2023-07-28T07:14:28;3.47;;;0.90;;
37787;SDS011;23627;53.302;-6.362;2023-07-28T07:16:54;3.25;;;1.27;;
37787;SDS011;23627;53.302;-6.362;2023-07-28T07:19:27;4.80;;;1.33;;
37787;SDS011;23627;53.302;-6.362;2023-07-28T07:24:35;2.80;;;1.20;;
37787;SDS011;23627;53.302;-6.362;2023-07-28T07:27:04;2.83;;;1.08;;
37787;SDS011;23627;53.302;-6.362;2023-07-28T07:32:34;3.30;;;1.05;;
37787;SDS011;23627;53.302;-6.362;2023-07-28T07:37:37;2.88;;;0.90;;
37787;SDS011;23627;53.302;-6.362;2023-07-28T07:40:33;2.50;;;0.88;;
37787;SDS011;23627;53.302;-6.362;2023-07-28T07:43:08;4.13;;;0.90;;
37787;SDS011;23627;53.302;-6.362;2023-07-28T07:58:31;1.10;;;0.70;;
37787;SDS011;23627;53.302;-6.362;2023-07-28T08:00:58;2.45;;;0.77;;
37787;SDS011;23627;53.302;-6.362;2023-07-28T08:03:32;2.55;;;0.93;;
37787;SDS011;23627;53.302;-6.362;2023-07-28T09:02:54;0.85;;;0.43;;
37787;SDS011;23627;53.302;-6.362;2023-07-28T09:05:21;1.13;;;0.43;;
37787;SDS011;23627;53.302;-6.362;2023-07-28T09:07:49;1.67;;;0.57;;
37787;SDS011;23627;53.302;-6.362;2023-07-28T09:10:15;2.38;;;0.55;;
37787;SDS011;23627;53.302;-6.362;2023-07-28T09:12:44;1.38;;;0.60;;
37787;SDS011;23627;53.302;-6.362;2023-07-28T09:15:12;0.50;;;0.32;;
37787;SDS011;23627;53.302;-6.362;2023-07-28T09:17:45;1.27;;;0.52;;
37787;SDS011;23627;53.302;-6.362;2023-07-28T09:20:13;1.98;;;0.60;;
37787;SDS011;23627;53.302;-6.362;2023-07-28T09:22:42;2.05;;;0.50;;
37787;SDS011;23627;53.302;-6.362;2023-07-28T09:25:15;1.42;;;0.50;;
37787;SDS011;23627;53.302;-6.362;2023-07-28T09:27:49;1.27;;;0.40;;
37787;SDS011;23627;53.302;-6.362;2023-07-28T09:30:16;0.75;;;0.38;;
37787;SDS011;23627;53.302;-6.362;2023-07-28T09:32:46;1.30;;;0.60;;
37787;SDS011;23627;53.302;-6.362;2023-07-28T09:35:13;1.73;;;0.57;;
37787;SDS011;23627;53.302;-6.362;2023-07-28T09:37:40;1.75;;;0.50;;
37787;SDS011;23627;53.302;-6.362;2023-07-28T09:40:16;1.20;;;0.60;;
37787;SDS011;23627;53.302;-6.362;2023-07-28T09:43:18;1.25;;;0.50;;
37787;SDS011;23627;53.302;-6.362;2023-07-28T09:45:45;2.95;;;0.47;;
37787;SDS011;23627;53.302;-6.362;2023-07-28T09:48:45;1.35;;;0.50;;
37787;SDS011;23627;53.302;-6.362;2023-07-28T09:51:17;0.80;;;0.40;;
37787;SDS011;23627;53.302;-6.362;2023-07-28T09:53:46;2.40;;;0.60;;
37787;SDS011;23627;53.302;-6.362;2023-07-28T09:56:27;2.00;;;0.65;;
37787;SDS011;23627;53.302;-6.362;2023-07-28T09:58:57;2.58;;;0.60;;
37787;SDS011;23627;53.302;-6.362;2023-07-28T10:01:24;2.40;;;0.80;;
37787;SDS011;23627;53.302;-6.362;2023-07-28T10:03:51;0.75;;;0.40;;
37787;SDS011;23627;53.302;-6.362;2023-07-28T10:06:17;0.50;;;0.30;;
37787;SDS011;23627;53.302;-6.362;2023-07-28T10:08:45;0.65;;;0.40;;
37787;SDS011;23627;53.302;-6.362;2023-07-28T10:11:14;1.02;;;0.40;;
37787;SDS011;23627;53.302;-6.362;2023-07-28T10:13:42;0.88;;;0.50;;
37787;SDS011;23627;53.302;-6.362;2023-07-28T10:16:09;0.80;;;0.40;;
37787;SDS011;23627;53.302;-6.362;2023-07-28T10:18:35;1.13;;;0.40;;
37787;SDS011;23627;53.302;-6.362;2023-07-28T10:21:05;1.10;;;0.60;;
37787;SDS011;23627;53.302;-6.362;2023-07-28T10:23:36;0.75;;;0.40;;
37787;SDS011;23627;53.302;-6.362;2023-07-28T10:26:02;1.45;;;0.40;;
37787;SDS011;23627;53.302;-6.362;2023-07-28T10:31:04;4.78;;;0.80;;
37787;SDS011;23627;53.302;-6.362;2023-07-28T10:39:33;1.02;;;0.40;;
37787;SDS011;23627;53.302;-6.362;2023-07-28T10:44:31;1.58;;;0.50;;
37787;SDS011;23627;53.302;-6.362;2023-07-28T10:46:58;1.02;;;0.40;;
37787;SDS011;23627;53.302;-6.362;2023-07-28T10:49:24;1.02;;;0.60;;
37787;SDS011;23627;53.302;-6.362;2023-07-28T10:51:51;0.55;;;0.35;;
37787;SDS011;23627;53.302;-6.362;2023-07-28T10:54:17;0.52;;;0.28;;
37787;SDS011;23627;53.302;-6.362;2023-07-28T10:56:45;0.70;;;0.30;;
37787;SDS011;23627;53.302;-6.362;2023-07-28T10:59:12;1.23;;;0.30;;
37787;SDS011;23627;53.302;-6.362;2023-07-28T11:01:39;0.50;;;0.30;;
37787;SDS011;23627;53.302;-6.362;2023-07-28T11:04:09;0.85;;;0.40;;
37787;SDS011;23627;53.302;-6.362;2023-07-28T11:06:35;1.20;;;0.30;;
37787;SDS011;23627;53.302;-6.362;2023-07-28T11:09:05;0.70;;;0.40;;
37787;SDS011;23627;53.302;-6.362;2023-07-28T11:11:31;0.50;;;0.20;;
37787;SDS011;23627;53.302;-6.362;2023-07-28T11:13:58;0.65;;;0.40;;
37787;SDS011;23627;53.302;-6.362;2023-07-28T11:16:24;0.43;;;0.22;;
37787;SDS011;23627;53.302;-6.362;2023-07-28T11:18:50;0.52;;;0.30;;
37787;SDS011;23627;53.302;-6.362;2023-07-28T11:21:21;0.60;;;0.20;;
37787;SDS011;23627;53.302;-6.362;2023-07-28T11:23:47;1.02;;;0.30;;
37787;SDS011;23627;53.302;-6.362;2023-07-28T11:26:13;0.70;;;0.30;;
37787;SDS011;23627;53.302;-6.362;2023-07-28T11:28:39;1.17;;;0.30;;
37787;SDS011;23627;53.302;-6.362;2023-07-28T11:31:04;0.52;;;0.30;;
37787;SDS011;23627;53.302;-6.362;2023-07-28T11:33:31;0.70;;;0.30;;
37787;SDS011;23627;53.302;-6.362;2023-07-28T11:35:56;0.85;;;0.30;;
37787;SDS011;23627;53.302;-6.362;2023-07-28T11:38:22;1.20;;;0.30;;
37787;SDS011;23627;53.302;-6.362;2023-07-28T11:40:48;0.38;;;0.20;;
37787;SDS011;23627;53.302;-6.362;2023-07-28T11:43:16;0.50;;;0.20;;
37787;SDS011;23627;53.302;-6.362;2023-07-28T11:45:43;0.50;;;0.20;;
37787;SDS011;23627;53.302;-6.362;2023-07-28T11:48:09;1.75;;;0.40;;
37787;SDS011;23627;53.302;-6.362;2023-07-28T11:50:38;0.63;;;0.30;;
37787;SDS011;23627;53.302;-6.362;2023-07-28T11:53:05;0.80;;;0.38;;
37787;SDS011;23627;53.302;-6.362;2023-07-28T11:55:32;1.05;;;0.32;;
37787;SDS011;23627;53.302;-6.362;2023-07-28T11:58:06;4.28;;;0.60;;
37787;SDS011;23627;53.302;-6.362;2023-07-28T12:00:33;0.82;;;0.30;;
37787;SDS011;23627;53.302;-6.362;2023-07-28T12:03:19;1.13;;;0.40;;
37787;SDS011;23627;53.302;-6.362;2023-07-28T12:06:03;0.70;;;0.50;;
37787;SDS011;23627;53.302;-6.362;2023-07-28T12:08:35;0.95;;;0.40;;
37787;SDS011;23627;53.302;-6.362;2023-07-28T12:11:04;1.15;;;0.30;;
37787;SDS011;23627;53.302;-6.362;2023-07-28T12:13:31;1.55;;;0.30;;
37787;SDS011;23627;53.302;-6.362;2023-07-28T12:18:32;0.90;;;0.50;;
37787;SDS011;23627;53.302;-6.362;2023-07-28T12:20:58;1.50;;;0.77;;
37787;SDS011;23627;53.302;-6.362;2023-07-28T12:23:25;2.15;;;0.40;;
37787;SDS011;23627;53.302;-6.362;2023-07-28T12:25:50;0.88;;;0.50;;
37787;SDS011;23627;53.302;-6.362;2023-07-28T12:28:21;1.00;;;0.60;;
37787;SDS011;23627;53.302;-6.362;2023-07-28T12:30:46;2.47;;;0.65;;
37787;SDS011;23627;53.302;-6.362;2023-07-28T12:33:17;2.75;;;0.60;;
37787;SDS011;23627;53.302;-6.362;2023-07-28T12:35:47;2.08;;;0.88;;
37787;SDS011;23627;53.302;-6.362;2023-07-28T12:38:12;6.43;;;0.80;;
37787;SDS011;23627;53.302;-6.362;2023-07-28T12:40:38;1.25;;;0.70;;
37787;SDS011;23627;53.302;-6.362;2023-07-28T12:43:04;1.35;;;0.60;;
37787;SDS011;23627;53.302;-6.362;2023-07-28T12:45:29;2.47;;;0.75;;
37787;SDS011;23627;53.302;-6.362;2023-07-28T12:47:55;2.35;;;0.60;;
37787;SDS011;23627;53.302;-6.362;2023-07-28T12:50:22;1.83;;;0.77;;
37787;SDS011;23627;53.302;-6.362;2023-07-28T12:52:48;1.02;;;0.73;;
37787;SDS011;23627;53.302;-6.362;2023-07-28T12:55:15;1.63;;;0.70;;
37787;SDS011;23627;53.302;-6.362;2023-07-28T12:57:42;1.15;;;0.80;;
37787;SDS011;23627;53.302;-6.362;2023-07-28T13:00:08;1.25;;;0.80;;
37787;SDS011;23627;53.302;-6.362;2023-07-28T13:02:41;1.40;;;0.70;;
37787;SDS011;23627;53.302;-6.362;2023-07-28T13:05:11;2.17;;;0.70;;
37787;SDS011;23627;53.302;-6.362;2023-07-28T13:07:37;1.98;;;0.75;;
37787;SDS011;23627;53.302;-6.362;2023-07-28T13:10:06;1.17;;;0.70;;
37787;SDS011;23627;53.302;-6.362;2023-07-28T13:12:39;0.90;;;0.70;;
37787;SDS011;23627;53.302;-6.362;2023-07-28T13:15:05;1.30;;;0.77;;
37787;SDS011;23627;53.302;-6.362;2023-07-28T13:17:31;2.17;;;0.70;;
37787;SDS011;23627;53.302;-6.362;2023-07-28T13:19:57;3.15;;;0.70;;
37787;SDS011;23627;53.302;-6.362;2023-07-28T13:22:25;2.08;;;0.60;;
37787;SDS011;23627;53.302;-6.362;2023-07-28T13:24:52;2.47;;;0.70;;
37787;SDS011;23627;53.302;-6.362;2023-07-28T13:27:39;1.60;;;0.63;;
37787;SDS011;23627;53.302;-6.362;2023-07-28T13:30:05;1.42;;;0.57;;
37787;SDS011;23627;53.302;-6.362;2023-07-28T13:32:31;1.85;;;0.63;;
37787;SDS011;23627;53.302;-6.362;2023-07-28T13:34:57;2.67;;;0.60;;
37787;SDS011;23627;53.302;-6.362;2023-07-28T13:37:22;0.90;;;0.60;;
37787;SDS011;23627;53.302;-6.362;2023-07-28T13:39:48;2.85;;;0.50;;
37787;SDS011;23627;53.302;-6.362;2023-07-28T13:42:14;1.00;;;0.52;;
37787;SDS011;23627;53.302;-6.362;2023-07-28T13:44:41;2.75;;;0.73;;
37787;SDS011;23627;53.302;-6.362;2023-07-28T13:47:08;1.83;;;0.60;;
37787;SDS011;23627;53.302;-6.362;2023-07-28T13:49:34;2.15;;;0.30;;
37787;SDS011;23627;53.302;-6.362;2023-07-28T13:52:02;1.60;;;0.40;;
37787;SDS011;23627;53.302;-6.362;2023-07-28T13:54:28;0.77;;;0.40;;
37787;SDS011;23627;53.302;-6.362;2023-07-28T13:56:54;0.98;;;0.50;;
37787;SDS011;23627;53.302;-6.362;2023-07-28T13:59:19;1.10;;;0.40;;
37787;SDS011;23627;53.302;-6.362;2023-07-28T14:01:48;1.85;;;0.50;;
37787;SDS011;23627;53.302;-6.362;2023-07-28T14:04:13;1.67;;;0.57;;
37787;SDS011;23627;53.302;-6.362;2023-07-28T14:06:39;0.80;;;0.60;;
37787;SDS011;23627;53.302;-6.362;2023-07-28T14:09:11;1.30;;;0.68;;
37787;SDS011;23627;53.302;-6.362;2023-07-28T14:11:38;1.88;;;0.70;;
37787;SDS011;23627;53.302;-6.362;2023-07-28T14:14:03;1.27;;;0.68;;
37787;SDS011;23627;53.302;-6.362;2023-07-28T14:16:29;1.88;;;0.60;;
37787;SDS011;23627;53.302;-6.362;2023-07-28T14:18:55;1.25;;;0.70;;
37787;SDS011;23627;53.302;-6.362;2023-07-28T14:21:21;1.05;;;0.70;;
37787;SDS011;23627;53.302;-6.362;2023-07-28T14:23:46;1.70;;;0.80;;
37787;SDS011;23627;53.302;-6.362;2023-07-28T14:26:12;2.38;;;0.80;;
37787;SDS011;23627;53.302;-6.362;2023-07-28T14:28:38;1.67;;;0.80;;
37787;SDS011;23627;53.302;-6.362;2023-07-28T14:31:04;1.45;;;0.70;;
37787;SDS011;23627;53.302;-6.362;2023-07-28T14:33:29;1.92;;;0.68;;
37787;SDS011;23627;53.302;-6.362;2023-07-28T14:35:55;1.42;;;0.70;;
37787;SDS011;23627;53.302;-6.362;2023-07-28T14:38:21;1.85;;;0.80;;
37787;SDS011;23627;53.302;-6.362;2023-07-28T14:40:47;3.80;;;0.90;;
37787;SDS011;23627;53.302;-6.362;2023-07-28T14:43:17;1.17;;;0.70;;
37787;SDS011;23627;53.302;-6.362;2023-07-28T14:45:42;5.80;;;1.15;;
37787;SDS011;23627;53.302;-6.362;2023-07-28T14:48:08;2.05;;;0.85;;
37787;SDS011;23627;53.302;-6.362;2023-07-28T14:50:34;2.08;;;0.80;;
37787;SDS011;23627;53.302;-6.362;2023-07-28T14:53:00;1.30;;;0.68;;
37787;SDS011;23627;53.302;-6.362;2023-07-28T14:55:26;2.67;;;0.77;;
37787;SDS011;23627;53.302;-6.362;2023-07-28T14:57:52;1.63;;;0.80;;
37787;SDS011;23627;53.302;-6.362;2023-07-28T15:00:18;3.15;;;0.60;;
37787;SDS011;23627;53.302;-6.362;2023-07-28T15:02:43;0.98;;;0.60;;
37787;SDS011;23627;53.302;-6.362;2023-07-28T15:05:09;2.63;;;0.60;;
37787;SDS011;23627;53.302;-6.362;2023-07-28T15:07:35;1.75;;;0.70;;
37787;SDS011;23627;53.302;-6.362;2023-07-28T15:10:02;2.25;;;0.70;;
37787;SDS011;23627;53.302;-6.362;2023-07-28T15:12:28;1.33;;;0.55;;
37787;SDS011;23627;53.302;-6.362;2023-07-28T15:14:54;1.63;;;0.63;;
37787;SDS011;23627;53.302;-6.362;2023-07-28T15:17:19;2.03;;;0.60;;
37787;SDS011;23627;53.302;-6.362;2023-07-28T15:19:45;2.33;;;0.60;;
37787;SDS011;23627;53.302;-6.362;2023-07-28T15:22:11;2.10;;;0.60;;
37787;SDS011;23627;53.302;-6.362;2023-07-28T15:24:37;2.40;;;0.60;;
37787;SDS011;23627;53.302;-6.362;2023-07-28T15:27:03;1.42;;;0.90;;
37787;SDS011;23627;53.302;-6.362;2023-07-28T15:29:29;1.20;;;0.60;;
37787;SDS011;23627;53.302;-6.362;2023-07-28T15:31:54;3.30;;;0.77;;
37787;SDS011;23627;53.302;-6.362;2023-07-28T15:34:21;1.20;;;0.65;;
37787;SDS011;23627;53.302;-6.362;2023-07-28T15:36:47;1.77;;;0.60;;
37787;SDS011;23627;53.302;-6.362;2023-07-28T15:39:13;1.20;;;0.60;;
37787;SDS011;23627;53.302;-6.362;2023-07-28T15:41:39;1.75;;;0.65;;
37787;SDS011;23627;53.302;-6.362;2023-07-28T15:44:05;1.48;;;0.60;;
37787;SDS011;23627;53.302;-6.362;2023-07-28T15:46:30;1.05;;;0.60;;
37787;SDS011;23627;53.302;-6.362;2023-07-28T15:48:56;1.10;;;0.50;;
37787;SDS011;23627;53.302;-6.362;2023-07-28T15:51:22;1.42;;;0.50;;
37787;SDS011;23627;53.302;-6.362;2023-07-28T15:53:48;2.05;;;0.60;;
37787;SDS011;23627;53.302;-6.362;2023-07-28T15:56:14;1.23;;;0.50;;
37787;SDS011;23627;53.302;-6.362;2023-07-28T15:58:39;1.85;;;0.47;;
37787;SDS011;23627;53.302;-6.362;2023-07-28T16:01:05;1.20;;;0.60;;
37787;SDS011;23627;53.302;-6.362;2023-07-28T16:03:31;1.63;;;0.73;;
37787;SDS011;23627;53.302;-6.362;2023-07-28T16:05:57;2.03;;;0.70;;
37787;SDS011;23627;53.302;-6.362;2023-07-28T16:08:23;1.40;;;0.70;;
37787;SDS011;23627;53.302;-6.362;2023-07-28T16:10:49;1.77;;;0.70;;
37787;SDS011;23627;53.302;-6.362;2023-07-28T16:13:15;1.73;;;0.73;;
37787;SDS011;23627;53.302;-6.362;2023-07-28T16:15:41;1.50;;;0.80;;
37787;SDS011;23627;53.302;-6.362;2023-07-28T16:18:06;1.77;;;0.80;;
37787;SDS011;23627;53.302;-6.362;2023-07-28T16:20:33;2.45;;;0.88;;
37787;SDS011;23627;53.302;-6.362;2023-07-28T16:22:59;2.85;;;0.80;;